Time;durP1;ratioP1;P1;durP2;ratioP2;P2;SDS_P1;SDS_P2;PMS_P1;PMS_P2;Temp;Humidity;BMP_temperature;BMP_pressure;BME280_temperature;BME280_humidity;BME280_pressure;Samples;Min_cycle;Max_cycle;Signal;HPM_P1;HPM_P2
2023/03/25 00:00:31;;;;;;;6.22;0.55;;;;;;;;;;5283757;28;20020;-72
2023/03/25 00:03:03;;;;;;;3.42;0.70;;;;;;;;;;5284536;28;20051;-72
2023/03/25 00:05:38;;;;;;;5.35;0.50;;;;;;;;;;5283236;28;20360;-72
2023/03/25 00:08:09;;;;;;;8.68;0.45;;;;;;;;;;5284691;28;20017;-72
2023/03/25 00:10:40;;;;;;;2.75;0.60;;;;;;;;;;5284052;28;20039;-72
2023/03/25 00:13:12;;;;;;;6.63;0.45;;;;;;;;;;5282813;28;20503;-71
2023/03/25 00:15:44;;;;;;;3.28;0.40;;;;;;;;;;5283846;28;20356;-72
2023/03/25 00:18:19;;;;;;;5.70;0.55;;;;;;;;;;5284374;28;20023;-72
2023/03/25 00:20:51;;;;;;;5.30;0.38;;;;;;;;;;5283258;28;20023;-71
2023/03/25 00:23:22;;;;;;;6.50;0.60;;;;;;;;;;5283984;28;20028;-71
2023/03/25 00:25:59;;;;;;;4.93;0.40;;;;;;;;;;5283969;28;20105;-71
2023/03/25 00:28:32;;;;;;;6.25;0.63;;;;;;;;;;5282890;28;20016;-71
2023/03/25 00:31:07;;;;;;;5.32;0.30;;;;;;;;;;5283988;28;20016;-71
2023/03/25 00:33:40;;;;;;;3.10;0.43;;;;;;;;;;5283082;28;20060;-72
2023/03/25 00:36:13;;;;;;;4.20;0.40;;;;;;;;;;5284075;28;20375;-72
2023/03/25 00:38:47;;;;;;;6.75;0.50;;;;;;;;;;5283364;28;20047;-72
2023/03/25 00:41:27;;;;;;;5.60;0.40;;;;;;;;;;5283125;28;20103;-72
2023/03/25 00:43:59;;;;;;;5.35;0.68;;;;;;;;;;5283926;28;20024;-72
2023/03/25 00:46:32;;;;;;;6.05;0.65;;;;;;;;;;5283580;28;20100;-73
2023/03/25 00:49:03;;;;;;;4.25;0.45;;;;;;;;;;5283005;28;20033;-72
2023/03/25 00:51:34;;;;;;;4.50;0.40;;;;;;;;;;5283172;28;20052;-72
2023/03/25 00:54:06;;;;;;;2.58;0.40;;;;;;;;;;5283664;28;20017;-72
2023/03/25 00:56:37;;;;;;;5.55;0.50;;;;;;;;;;5282365;28;20041;-72
2023/03/25 00:59:09;;;;;;;4.38;0.40;;;;;;;;;;5283599;28;20035;-72
2023/03/25 01:01:40;;;;;;;6.75;0.43;;;;;;;;;;5281981;28;20020;-72
2023/03/25 01:04:12;;;;;;;3.88;0.50;;;;;;;;;;5283385;28;20036;-71
2023/03/25 01:06:43;;;;;;;4.45;0.50;;;;;;;;;;5282698;28;20025;-71
2023/03/25 01:09:14;;;;;;;2.92;0.40;;;;;;;;;;5282550;28;20541;-71
2023/03/25 01:11:46;;;;;;;3.40;0.55;;;;;;;;;;5282759;28;20116;-72
2023/03/25 01:14:18;;;;;;;4.20;0.40;;;;;;;;;;5283432;28;20013;-72
2023/03/25 01:16:49;;;;;;;3.42;0.30;;;;;;;;;;5281557;28;20021;-72
2023/03/25 01:19:21;;;;;;;4.38;0.57;;;;;;;;;;5282826;28;20531;-72
2023/03/25 01:21:52;;;;;;;4.30;0.38;;;;;;;;;;5282991;28;20023;-72
2023/03/25 01:24:24;;;;;;;4.47;0.50;;;;;;;;;;5281599;28;20430;-72
2023/03/25 01:26:55;;;;;;;3.00;0.50;;;;;;;;;;5282717;28;20023;-72
2023/03/25 01:29:26;;;;;;;4.63;0.93;;;;;;;;;;5282182;28;20467;-72
2023/03/25 01:31:57;;;;;;;4.65;0.45;;;;;;;;;;5282178;28;20060;-72
2023/03/25 01:34:30;;;;;;;1.77;0.35;;;;;;;;;;5282344;28;20024;-72
2023/03/25 01:37:01;;;;;;;2.67;0.30;;;;;;;;;;5281959;28;20013;-73
2023/03/25 01:39:33;;;;;;;5.03;0.45;;;;;;;;;;5282172;28;20028;-72
2023/03/25 01:42:04;;;;;;;5.55;0.38;;;;;;;;;;5282602;28;20013;-71
2023/03/25 01:44:39;;;;;;;3.58;0.30;;;;;;;;;;5281243;28;20100;-72
2023/03/25 01:47:11;;;;;;;3.80;0.70;;;;;;;;;;5282579;28;20044;-72
2023/03/25 01:49:44;;;;;;;3.15;0.30;;;;;;;;;;5281955;28;20048;-72
2023/03/25 01:52:20;;;;;;;1.90;0.30;;;;;;;;;;5281392;28;20128;-72
2023/03/25 01:54:52;;;;;;;3.70;0.70;;;;;;;;;;5282684;28;20024;-72
2023/03/25 01:57:24;;;;;;;2.80;0.30;;;;;;;;;;5282433;28;20016;-71
2023/03/25 01:59:55;;;;;;;3.00;0.45;;;;;;;;;;5281866;28;20099;-71
2023/03/25 02:02:33;;;;;;;2.78;0.40;;;;;;;;;;5281871;28;20108;-72
2023/03/25 02:05:09;;;;;;;3.42;0.68;;;;;;;;;;5281421;28;20064;-72
2023/03/25 02:07:41;;;;;;;2.67;0.30;;;;;;;;;;5281822;28;20025;-72
2023/03/25 02:10:13;;;;;;;4.15;0.50;;;;;;;;;;5282507;28;20082;-71
2023/03/25 02:12:45;;;;;;;3.00;0.43;;;;;;;;;;5280988;28;20086;-71
2023/03/25 02:15:17;;;;;;;2.60;0.30;;;;;;;;;;5282103;28;20070;-71
2023/03/25 02:17:49;;;;;;;1.63;0.25;;;;;;;;;;5282120;28;20406;-72
2023/03/25 02:20:23;;;;;;;3.90;0.65;;;;;;;;;;5281328;28;20035;-72
2023/03/25 02:23:09;;;;;;;2.95;0.40;;;;;;;;;;5281747;28;20017;-72
2023/03/25 02:25:44;;;;;;;2.25;0.30;;;;;;;;;;5281335;28;20029;-72
2023/03/25 02:28:35;;;;;;;1.80;0.30;;;;;;;;;;5281085;28;20032;-72
2023/03/25 02:31:13;;;;;;;3.55;0.95;;;;;;;;;;5282122;28;20523;-72
2023/03/25 02:34:04;;;;;;;3.30;0.32;;;;;;;;;;5280976;28;20021;-71
2023/03/25 02:37:02;;;;;;;4.80;0.50;;;;;;;;;;5284657;28;20040;-72
2023/03/25 02:39:46;;;;;;;3.85;0.40;;;;;;;;;;5285982;28;20361;-72
2023/03/25 02:42:36;;;;;;;3.28;0.40;;;;;;;;;;5285590;28;20062;-72
2023/03/25 02:45:11;;;;;;;1.88;0.30;;;;;;;;;;5286173;28;20032;-70
2023/03/25 02:47:44;;;;;;;3.08;0.30;;;;;;;;;;5285035;28;20498;-71
2023/03/25 02:50:21;;;;;;;5.57;0.32;;;;;;;;;;5286104;28;20050;-72
2023/03/25 02:52:55;;;;;;;2.60;0.30;;;;;;;;;;5285613;28;20036;-71
2023/03/25 02:55:29;;;;;;;5.00;0.43;;;;;;;;;;5284940;28;20040;-72
2023/03/25 02:58:03;;;;;;;5.88;0.40;;;;;;;;;;5286042;28;20021;-72
2023/03/25 03:00:37;;;;;;;8.13;0.50;;;;;;;;;;5285681;28;20024;-71
2023/03/25 03:03:09;;;;;;;4.85;0.40;;;;;;;;;;5284971;28;20024;-72
2023/03/25 03:05:45;;;;;;;2.53;0.60;;;;;;;;;;5285164;28;20051;-72
2023/03/25 03:08:18;;;;;;;2.85;0.40;;;;;;;;;;5285120;28;20077;-72
2023/03/25 03:11:05;;;;;;;5.35;0.50;;;;;;;;;;5285092;28;20104;-72
2023/03/25 03:13:55;;;;;;;4.50;0.35;;;;;;;;;;5285124;28;20024;-72
2023/03/25 03:16:47;;;;;;;3.97;0.60;;;;;;;;;;5284608;28;20032;-72
2023/03/25 03:19:39;;;;;;;3.65;0.55;;;;;;;;;;5285661;28;20024;-72
2023/03/25 03:22:34;;;;;;;4.70;0.45;;;;;;;;;;5285626;28;20473;-72
2023/03/25 03:25:09;;;;;;;7.55;0.90;;;;;;;;;;5285542;28;20024;-72
2023/03/25 03:27:50;;;;;;;3.47;0.40;;;;;;;;;;5285117;28;20016;-72
2023/03/25 03:30:21;;;;;;;7.57;0.93;;;;;;;;;;5284235;28;20374;-72
2023/03/25 03:33:01;;;;;;;4.05;0.45;;;;;;;;;;5285125;28;20016;-72
2023/03/25 03:35:37;;;;;;;5.68;0.65;;;;;;;;;;5284806;28;20107;-72
2023/03/25 03:38:10;;;;;;;2.78;0.50;;;;;;;;;;5284396;28;20036;-72
2023/03/25 03:40:44;;;;;;;7.45;0.60;;;;;;;;;;5284415;28;20383;-72
2023/03/25 03:43:20;;;;;;;7.20;0.68;;;;;;;;;;5285400;28;20032;-72
2023/03/25 03:45:54;;;;;;;6.32;0.65;;;;;;;;;;5283999;28;20027;-72
2023/03/25 03:48:32;;;;;;;6.82;0.60;;;;;;;;;;5284393;28;20095;-72
2023/03/25 03:51:24;;;;;;;4.85;0.40;;;;;;;;;;5284044;28;20106;-72
2023/03/25 03:54:02;;;;;;;5.55;0.70;;;;;;;;;;5284283;28;20051;-72
2023/03/25 03:56:40;;;;;;;7.05;0.60;;;;;;;;;;5284257;28;20132;-73
2023/03/25 03:59:14;;;;;;;9.73;1.40;;;;;;;;;;5283762;28;20017;-73
2023/03/25 04:01:52;;;;;;;4.45;0.50;;;;;;;;;;5283958;28;20020;-72
2023/03/25 04:04:27;;;;;;;8.05;0.75;;;;;;;;;;5284615;28;20349;-73
2023/03/25 04:07:27;;;;;;;5.65;0.43;;;;;;;;;;5284127;28;20341;-72
2023/03/25 04:10:02;;;;;;;3.70;0.50;;;;;;;;;;5247604;28;20115;-72
2023/03/25 04:12:36;;;;;;;7.07;0.60;;;;;;;;;;5283494;28;20360;-72
2023/03/25 04:15:07;;;;;;;7.47;0.88;;;;;;;;;;5284651;28;20017;-72
2023/03/25 04:17:38;;;;;;;6.00;0.40;;;;;;;;;;5283738;28;20044;-72
2023/03/25 04:20:14;;;;;;;5.82;0.60;;;;;;;;;;5283598;28;20028;-72
2023/03/25 04:22:45;;;;;;;4.53;0.50;;;;;;;;;;5283974;28;20021;-72
2023/03/25 04:25:20;;;;;;;4.10;0.40;;;;;;;;;;5284601;28;20013;-72
2023/03/25 04:27:52;;;;;;;2.88;0.40;;;;;;;;;;5283148;28;20015;-73
2023/03/25 04:30:24;;;;;;;3.28;0.40;;;;;;;;;;5283812;28;20020;-73
2023/03/25 04:32:56;;;;;;;4.28;0.40;;;;;;;;;;5283187;28;20029;-72
2023/03/25 04:35:27;;;;;;;5.68;0.70;;;;;;;;;;5283660;28;20027;-71
2023/03/25 04:38:01;;;;;;;4.50;0.38;;;;;;;;;;5284308;28;20024;-71
2023/03/25 04:40:32;;;;;;;3.47;0.30;;;;;;;;;;5282759;28;20371;-72
2023/03/25 04:43:03;;;;;;;5.40;0.50;;;;;;;;;;5283689;28;20032;-72
2023/03/25 04:45:35;;;;;;;3.75;0.40;;;;;;;;;;5283335;28;20459;-72
2023/03/25 04:48:13;;;;;;;3.95;0.40;;;;;;;;;;5283310;28;20031;-72
2023/03/25 04:50:45;;;;;;;2.67;0.30;;;;;;;;;;5283224;28;20028;-72
2023/03/25 04:53:17;;;;;;;3.60;0.40;;;;;;;;;;5283897;28;20078;-71
2023/03/25 04:55:49;;;;;;;2.92;0.40;;;;;;;;;;5282259;28;20028;-71
2023/03/25 04:58:20;;;;;;;4.40;0.50;;;;;;;;;;5282971;28;20027;-72
2023/03/25 05:00:52;;;;;;;3.30;0.35;;;;;;;;;;5282934;28;20008;-72
2023/03/25 05:03:23;;;;;;;3.75;0.40;;;;;;;;;;5283113;28;20021;-72
2023/03/25 05:05:55;;;;;;;3.45;0.43;;;;;;;;;;5283098;28;20475;-72
2023/03/25 05:08:27;;;;;;;8.40;0.68;;;;;;;;;;5282143;28;20472;-72
2023/03/25 05:10:58;;;;;;;6.03;0.77;;;;;;;;;;5283475;28;20021;-71
2023/03/25 05:13:29;;;;;;;4.20;0.43;;;;;;;;;;5282639;28;20125;-71
2023/03/25 05:16:01;;;;;;;5.00;0.30;;;;;;;;;;5282416;28;20017;-71
2023/03/25 05:18:32;;;;;;;5.22;0.40;;;;;;;;;;5282553;28;20108;-70
2023/03/25 05:21:04;;;;;;;2.72;0.50;;;;;;;;;;5283428;28;20484;-72
2023/03/25 05:23:35;;;;;;;3.22;0.45;;;;;;;;;;5281836;28;20063;-72
2023/03/25 05:26:07;;;;;;;4.82;0.50;;;;;;;;;;5283046;28;20099;-71
2023/03/25 05:28:38;;;;;;;7.78;0.52;;;;;;;;;;5282477;28;20096;-72
2023/03/25 05:31:10;;;;;;;5.43;0.40;;;;;;;;;;5282360;28;20021;-72
2023/03/25 05:33:44;;;;;;;5.00;0.73;;;;;;;;;;5282450;28;20013;-71
2023/03/25 05:36:15;;;;;;;4.53;0.40;;;;;;;;;;5281599;28;20024;-72
2023/03/25 05:38:47;;;;;;;4.95;0.63;;;;;;;;;;5282173;28;20030;-72
2023/03/25 05:41:18;;;;;;;6.20;0.52;;;;;;;;;;5282344;28;20036;-73
2023/03/25 05:43:49;;;;;;;6.13;0.75;;;;;;;;;;5280834;28;20395;-72
2023/03/25 05:46:20;;;;;;;3.00;0.32;;;;;;;;;;5282542;28;20013;-72
2023/03/25 05:48:52;;;;;;;5.53;0.88;;;;;;;;;;5282262;28;20047;-72
2023/03/25 05:51:24;;;;;;;6.13;0.50;;;;;;;;;;5281146;28;20037;-72
2023/03/25 05:53:55;;;;;;;4.82;0.40;;;;;;;;;;5282262;28;20058;-72
2023/03/25 05:56:26;;;;;;;4.47;0.40;;;;;;;;;;5281456;28;20009;-72
2023/03/25 05:58:58;;;;;;;3.20;0.38;;;;;;;;;;5281564;28;20494;-72
2023/03/25 06:01:29;;;;;;;5.65;0.98;;;;;;;;;;5281897;28;20013;-72
2023/03/25 06:04:01;;;;;;;5.63;0.80;;;;;;;;;;5282057;28;20060;-72
2023/03/25 06:06:32;;;;;;;3.72;0.40;;;;;;;;;;5280816;28;20348;-72
2023/03/25 06:09:04;;;;;;;5.45;0.50;;;;;;;;;;5282285;28;20403;-71
2023/03/25 06:11:45;;;;;;;7.15;1.38;;;;;;;;;;5280469;28;20016;-72
2023/03/25 06:14:16;;;;;;;6.43;1.50;;;;;;;;;;5282288;28;20020;-72
2023/03/25 06:16:48;;;;;;;5.40;0.50;;;;;;;;;;5281617;28;20016;-72
2023/03/25 06:19:25;;;;;;;6.30;0.55;;;;;;;;;;5280923;28;20073;-72
2023/03/25 06:21:56;;;;;;;6.13;0.40;;;;;;;;;;5282226;28;20034;-72
2023/03/25 06:24:27;;;;;;;6.03;0.70;;;;;;;;;;5281539;28;20058;-72
2023/03/25 06:26:58;;;;;;;6.22;0.50;;;;;;;;;;5281630;28;20086;-72
2023/03/25 06:29:30;;;;;;;4.60;0.45;;;;;;;;;;5281313;28;20024;-71
2023/03/25 06:32:01;;;;;;;8.23;0.65;;;;;;;;;;5282189;28;20524;-72
2023/03/25 06:34:33;;;;;;;6.53;0.65;;;;;;;;;;5280702;28;20024;-71
2023/03/25 06:37:04;;;;;;;5.88;0.88;;;;;;;;;;5281703;28;20051;-72
2023/03/25 06:39:36;;;;;;;3.90;0.90;;;;;;;;;;5280748;28;20436;-73
2023/03/25 06:42:07;;;;;;;8.27;0.77;;;;;;;;;;5281730;28;20464;-72
2023/03/25 06:44:39;;;;;;;5.85;0.50;;;;;;;;;;5281549;28;20086;-72
2023/03/25 06:47:10;;;;;;;6.55;0.55;;;;;;;;;;5280984;28;20027;-72
2023/03/25 06:49:41;;;;;;;7.32;0.70;;;;;;;;;;5281439;28;20017;-72
2023/03/25 06:52:12;;;;;;;5.63;0.80;;;;;;;;;;5281629;28;20128;-73
2023/03/25 06:54:44;;;;;;;5.28;0.60;;;;;;;;;;5280384;28;20033;-71
2023/03/25 06:57:15;;;;;;;9.73;0.75;;;;;;;;;;5281912;28;20047;-72
2023/03/25 06:59:47;;;;;;;8.70;1.10;;;;;;;;;;5281253;28;20021;-72
2023/03/25 07:02:18;;;;;;;5.90;0.60;;;;;;;;;;5281329;28;20125;-73
2023/03/25 07:04:49;;;;;;;8.02;0.80;;;;;;;;;;5280664;28;20126;-73
2023/03/25 07:07:21;;;;;;;6.28;0.60;;;;;;;;;;5281154;28;20360;-72
2023/03/25 07:09:53;;;;;;;7.55;0.93;;;;;;;;;;5280701;28;20029;-73
2023/03/25 07:12:25;;;;;;;8.07;0.88;;;;;;;;;;5280938;28;20013;-71
2023/03/25 07:14:56;;;;;;;9.27;0.60;;;;;;;;;;5280787;28;20036;-72
2023/03/25 07:17:28;;;;;;;9.23;0.90;;;;;;;;;;5280781;28;20059;-73
2023/03/25 07:19:59;;;;;;;7.45;0.80;;;;;;;;;;5281342;28;20497;-73
2023/03/25 07:22:30;;;;;;;5.80;0.70;;;;;;;;;;5282593;28;20028;-72
2023/03/25 07:25:02;;;;;;;7.60;0.77;;;;;;;;;;5285278;28;20494;-71
2023/03/25 07:27:33;;;;;;;7.90;0.80;;;;;;;;;;5284260;28;20021;-70
2023/03/25 07:30:05;;;;;;;6.85;0.93;;;;;;;;;;5284437;28;20031;-70
2023/03/25 07:32:36;;;;;;;6.53;0.88;;;;;;;;;;5284763;28;20017;-71
2023/03/25 07:35:08;;;;;;;8.57;0.73;;;;;;;;;;5285122;28;20024;-71
2023/03/25 07:37:39;;;;;;;6.78;0.75;;;;;;;;;;5283586;28;20020;-71
2023/03/25 07:40:10;;;;;;;7.90;0.70;;;;;;;;;;5284945;28;20039;-71
2023/03/25 07:42:42;;;;;;;6.88;0.68;;;;;;;;;;5283493;28;20132;-71
2023/03/25 07:45:14;;;;;;;9.38;0.82;;;;;;;;;;5284764;28;20395;-71
2023/03/25 07:47:48;;;;;;;9.43;0.82;;;;;;;;;;5284183;28;20099;-71
2023/03/25 07:50:21;;;;;;;8.45;0.77;;;;;;;;;;5283864;28;20032;-71
2023/03/25 07:52:52;;;;;;;11.50;0.82;;;;;;;;;;5284381;28;20110;-72
2023/03/25 07:55:24;;;;;;;7.53;0.85;;;;;;;;;;5284579;28;20021;-71
2023/03/25 07:57:57;;;;;;;8.68;0.80;;;;;;;;;;5283917;28;20024;-72
2023/03/25 08:00:28;;;;;;;9.85;0.80;;;;;;;;;;5284298;28;20473;-72
2023/03/25 08:03:00;;;;;;;12.23;1.73;;;;;;;;;;5284150;28;20103;-71
2023/03/25 08:05:31;;;;;;;9.63;0.73;;;;;;;;;;5283046;28;20112;-69
2023/03/25 08:08:04;;;;;;;10.10;0.80;;;;;;;;;;5284442;28;20375;-71
2023/03/25 08:10:35;;;;;;;7.55;0.75;;;;;;;;;;5283911;28;20028;-69
2023/03/25 08:13:06;;;;;;;7.15;0.70;;;;;;;;;;5283637;28;20013;-69
2023/03/25 08:15:38;;;;;;;7.90;1.13;;;;;;;;;;5283982;28;20025;-69
2023/03/25 08:18:09;;;;;;;7.85;0.73;;;;;;;;;;5283228;28;20024;-73
2023/03/25 08:20:40;;;;;;;5.25;0.98;;;;;;;;;;5283651;28;20028;-71
2023/03/25 08:23:18;;;;;;;6.85;0.80;;;;;;;;;;5284179;28;20031;-71
2023/03/25 08:25:49;;;;;;;4.72;0.65;;;;;;;;;;5283040;28;20470;-71
2023/03/25 08:28:21;;;;;;;8.80;1.05;;;;;;;;;;5283653;28;20028;-70
2023/03/25 08:30:53;;;;;;;9.20;1.13;;;;;;;;;;5283753;28;20021;-69
2023/03/25 08:33:38;;;;;;;9.82;0.93;;;;;;;;;;5282032;28;20081;-72
2023/03/25 08:36:12;;;;;;;7.50;0.90;;;;;;;;;;5284139;28;20567;-72
2023/03/25 08:38:47;;;;;;;6.93;1.17;;;;;;;;;;5282727;28;20062;-72
2023/03/25 08:41:18;;;;;;;7.68;1.00;;;;;;;;;;5283510;28;20460;-72
2023/03/25 08:43:49;;;;;;;11.02;1.10;;;;;;;;;;5282865;28;20032;-71
2023/03/25 08:46:21;;;;;;;9.00;0.70;;;;;;;;;;5282535;28;20100;-71
2023/03/25 08:48:53;;;;;;;9.50;1.00;;;;;;;;;;5283279;28;20020;-70
2023/03/25 08:51:24;;;;;;;8.60;0.93;;;;;;;;;;5282747;28;20373;-71
2023/03/25 08:53:55;;;;;;;9.48;0.82;;;;;;;;;;5282845;28;20070;-73
2023/03/25 08:56:27;;;;;;;6.75;0.93;;;;;;;;;;5282879;28;20024;-71
2023/03/25 08:58:58;;;;;;;11.63;1.40;;;;;;;;;;5283359;28;20051;-72
2023/03/25 09:01:29;;;;;;;8.70;0.88;;;;;;;;;;5281994;28;20028;-71
2023/03/25 09:04:01;;;;;;;8.60;1.13;;;;;;;;;;5283261;28;20037;-71
2023/03/25 09:06:32;;;;;;;11.75;1.30;;;;;;;;;;5282648;28;20463;-71
2023/03/25 09:09:04;;;;;;;13.35;1.27;;;;;;;;;;5282761;28;20093;-71
2023/03/25 09:11:35;;;;;;;10.20;1.40;;;;;;;;;;5282620;28;20505;-71
2023/03/25 09:14:06;;;;;;;10.50;1.05;;;;;;;;;;5282262;28;20025;-71
2023/03/25 09:16:38;;;;;;;9.48;1.27;;;;;;;;;;5282416;28;20490;-71
2023/03/25 09:19:09;;;;;;;9.18;1.15;;;;;;;;;;5282644;28;20467;-71
2023/03/25 09:21:40;;;;;;;7.05;1.10;;;;;;;;;;5281576;28;20027;-72
2023/03/25 09:24:12;;;;;;;8.15;1.00;;;;;;;;;;5282789;28;20109;-71
2023/03/25 09:26:43;;;;;;;8.27;0.88;;;;;;;;;;5282383;28;20060;-71
2023/03/25 09:29:15;;;;;;;10.55;1.15;;;;;;;;;;5282255;28;20017;-71
2023/03/25 09:31:46;;;;;;;8.05;1.00;;;;;;;;;;5282087;28;20024;-71
2023/03/25 09:34:18;;;;;;;9.70;1.20;;;;;;;;;;5282731;28;20471;-72
2023/03/25 09:36:49;;;;;;;6.78;1.10;;;;;;;;;;5281165;28;20035;-70
2023/03/25 09:39:20;;;;;;;9.85;1.60;;;;;;;;;;5282079;28;20532;-72
2023/03/25 09:41:51;;;;;;;12.82;2.15;;;;;;;;;;5282257;28;20225;-71
2023/03/25 09:44:27;;;;;;;8.07;1.00;;;;;;;;;;5280730;28;20028;-71
2023/03/25 09:47:00;;;;;;;8.18;1.20;;;;;;;;;;5281174;28;20371;-71
2023/03/25 09:49:52;;;;;;;10.98;0.90;;;;;;;;;;5278739;28;20086;-72
2023/03/25 09:52:47;;;;;;;7.32;1.52;;;;;;;;;;5279367;28;20106;-71
2023/03/25 09:55:23;;;;;;;10.00;1.35;;;;;;;;;;5275597;28;20036;-72
2023/03/25 09:57:57;;;;;;;6.15;0.95;;;;;;;;;;5281309;28;20040;-72
2023/03/25 10:00:29;;;;;;;5.18;0.85;;;;;;;;;;5281224;28;20090;-72
2023/03/25 10:03:06;;;;;;;9.45;1.60;;;;;;;;;;5282190;28;20491;-73
2023/03/25 10:05:43;;;;;;;6.47;0.98;;;;;;;;;;5281012;28;20043;-72
2023/03/25 10:08:21;;;;;;;12.63;1.75;;;;;;;;;;5282206;28;20021;-72
2023/03/25 10:11:04;;;;;;;6.93;1.17;;;;;;;;;;5281357;28;20103;-72
2023/03/25 10:13:55;;;;;;;8.40;1.42;;;;;;;;;;5281405;28;20356;-72
2023/03/25 10:16:45;;;;;;;10.57;1.63;;;;;;;;;;5281477;28;20120;-72
2023/03/25 10:19:16;;;;;;;11.27;1.63;;;;;;;;;;5281322;28;20021;-72
2023/03/25 10:21:54;;;;;;;9.40;1.38;;;;;;;;;;5281310;28;20027;-72
2023/03/25 10:24:45;;;;;;;12.00;1.67;;;;;;;;;;5279659;28;20295;-71
2023/03/25 10:27:21;;;;;;;11.90;2.65;;;;;;;;;;5280161;28;20024;-73
2023/03/25 10:29:55;;;;;;;8.57;1.02;;;;;;;;;;5280628;28;20496;-73
2023/03/25 10:32:29;;;;;;;13.23;1.85;;;;;;;;;;5278776;28;20047;-73
2023/03/25 10:35:02;;;;;;;8.77;1.40;;;;;;;;;;5279631;28;20082;-72
2023/03/25 10:37:34;;;;;;;10.52;1.23;;;;;;;;;;5278937;28;20020;-72
2023/03/25 10:40:18;;;;;;;10.10;1.33;;;;;;;;;;5279271;28;20479;-73
2023/03/25 10:43:00;;;;;;;10.25;1.38;;;;;;;;;;5279302;28;20177;-72
2023/03/25 10:45:31;;;;;;;11.05;1.42;;;;;;;;;;5278514;28;20029;-72
2023/03/25 10:48:31;;;;;;;7.95;0.90;;;;;;;;;;5279314;28;20048;-72
2023/03/25 10:51:14;;;;;;;10.45;0.90;;;;;;;;;;5269924;28;20098;-72
2023/03/25 10:53:47;;;;;;;7.72;1.00;;;;;;;;;;5278746;28;20070;-73
2023/03/25 10:56:20;;;;;;;9.27;1.55;;;;;;;;;;5282376;28;20032;-71
2023/03/25 10:58:56;;;;;;;9.18;1.10;;;;;;;;;;5285827;28;20406;-71
2023/03/25 11:01:46;;;;;;;9.65;0.73;;;;;;;;;;5284939;28;20370;-72
2023/03/25 11:04:19;;;;;;;7.13;1.17;;;;;;;;;;5285701;28;20116;-72
2023/03/25 11:06:56;;;;;;;11.35;0.85;;;;;;;;;;5284538;28;20021;-71
2023/03/25 11:09:29;;;;;;;11.10;1.15;;;;;;;;;;5285009;28;20031;-72
2023/03/25 11:12:01;;;;;;;4.13;0.60;;;;;;;;;;5285589;28;20021;-72
2023/03/25 11:14:36;;;;;;;5.70;0.90;;;;;;;;;;5284152;28;20074;-72
2023/03/25 11:17:13;;;;;;;4.38;0.77;;;;;;;;;;5285438;28;20028;-72
2023/03/25 11:19:50;;;;;;;5.35;0.60;;;;;;;;;;5284675;28;20040;-71
2023/03/25 11:22:25;;;;;;;6.15;0.55;;;;;;;;;;5284492;28;20082;-71
2023/03/25 11:25:02;;;;;;;4.13;0.50;;;;;;;;;;5285206;28;20032;-71
2023/03/25 11:27:39;;;;;;;4.28;0.70;;;;;;;;;;5284594;28;20075;-71
2023/03/25 11:30:20;;;;;;;6.57;0.93;;;;;;;;;;5285383;28;20024;-72
2023/03/25 11:33:05;;;;;;;8.63;0.70;;;;;;;;;;5284859;28;20044;-72
2023/03/25 11:35:41;;;;;;;4.68;0.50;;;;;;;;;;5283767;28;20020;-72
2023/03/25 11:38:14;;;;;;;6.22;1.05;;;;;;;;;;5285273;28;20021;-73
2023/03/25 11:40:51;;;;;;;5.38;0.60;;;;;;;;;;5284368;28;20021;-71
2023/03/25 11:43:25;;;;;;;4.00;0.85;;;;;;;;;;5283780;28;20052;-72
2023/03/25 11:45:56;;;;;;;8.10;0.80;;;;;;;;;;5284968;28;20017;-71
2023/03/25 11:48:30;;;;;;;5.95;1.20;;;;;;;;;;5284187;28;20062;-71
2023/03/25 11:51:03;;;;;;;5.05;0.80;;;;;;;;;;5283835;28;20048;-71
2023/03/25 11:53:35;;;;;;;6.30;0.85;;;;;;;;;;5284274;28;20029;-71
2023/03/25 11:56:07;;;;;;;8.38;0.85;;;;;;;;;;5283936;28;20016;-71
2023/03/25 11:58:39;;;;;;;6.55;0.93;;;;;;;;;;5284078;28;20091;-70
2023/03/25 12:01:22;;;;;;;5.13;0.88;;;;;;;;;;5284987;28;20034;-71
2023/03/25 12:04:10;;;;;;;6.82;0.85;;;;;;;;;;5283555;28;20041;-71
2023/03/25 12:06:58;;;;;;;8.40;0.90;;;;;;;;;;5284069;28;20012;-69
2023/03/25 12:09:30;;;;;;;10.77;1.63;;;;;;;;;;5282606;28;20020;-72
2023/03/25 12:12:07;;;;;;;8.13;0.90;;;;;;;;;;5283372;28;20255;-72
2023/03/25 12:14:47;;;;;;;6.65;0.80;;;;;;;;;;5283928;28;20017;-72
2023/03/25 12:17:42;;;;;;;11.75;0.90;;;;;;;;;;5283436;28;20044;-72
2023/03/25 12:20:32;;;;;;;6.72;0.90;;;;;;;;;;5284247;28;20028;-71
2023/03/25 12:23:23;;;;;;;7.07;0.70;;;;;;;;;;5283841;28;20029;-71
2023/03/25 12:25:55;;;;;;;9.43;0.75;;;;;;;;;;5282957;28;20028;-70
2023/03/25 12:28:29;;;;;;;5.22;0.60;;;;;;;;;;5283400;28;20471;-71
2023/03/25 12:31:06;;;;;;;5.88;0.60;;;;;;;;;;5283253;28;20149;-72
2023/03/25 12:33:42;;;;;;;5.38;0.60;;;;;;;;;;5283005;28;20024;-72
2023/03/25 12:36:28;;;;;;;5.10;0.57;;;;;;;;;;5283797;28;20019;-71
2023/03/25 12:39:22;;;;;;;4.03;0.52;;;;;;;;;;5283186;28;20469;-72
2023/03/25 12:42:09;;;;;;;4.75;0.50;;;;;;;;;;5283509;28;20028;-72
2023/03/25 12:44:59;;;;;;;5.00;0.52;;;;;;;;;;5283135;28;20028;-71
2023/03/25 12:47:49;;;;;;;3.92;0.55;;;;;;;;;;5283131;28;20032;-70
2023/03/25 12:50:32;;;;;;;4.90;0.50;;;;;;;;;;5283322;28;20037;-72
2023/03/25 12:53:09;;;;;;;6.55;0.80;;;;;;;;;;5282503;28;20080;-71
2023/03/25 12:55:43;;;;;;;8.40;0.70;;;;;;;;;;5282913;28;20036;-71
2023/03/25 12:58:23;;;;;;;7.03;0.70;;;;;;;;;;5282618;28;20017;-71
2023/03/25 13:01:00;;;;;;;6.35;0.95;;;;;;;;;;5280546;28;20115;-69
2023/03/25 13:03:37;;;;;;;7.45;0.90;;;;;;;;;;5282611;28;20078;-71
2023/03/25 13:06:20;;;;;;;8.05;1.05;;;;;;;;;;5282319;28;20021;-72
2023/03/25 13:08:57;;;;;;;8.43;1.20;;;;;;;;;;5281978;28;20012;-71
2023/03/25 13:11:48;;;;;;;6.70;0.68;;;;;;;;;;5282679;28;20066;-72
2023/03/25 13:14:22;;;;;;;12.35;0.80;;;;;;;;;;5279966;28;20032;-71
2023/03/25 13:16:56;;;;;;;8.18;1.00;;;;;;;;;;5280750;28;20578;-71
2023/03/25 13:19:29;;;;;;;9.10;1.63;;;;;;;;;;5279790;28;20582;-71
2023/03/25 13:22:04;;;;;;;8.23;1.23;;;;;;;;;;5279903;28;20020;-72
2023/03/25 13:24:43;;;;;;;10.60;1.17;;;;;;;;;;5279826;28;20028;-72
2023/03/25 13:27:14;;;;;;;7.75;0.70;;;;;;;;;;5280467;28;20498;-72
2023/03/25 13:29:48;;;;;;;9.05;0.70;;;;;;;;;;5282442;28;20020;-71
2023/03/25 13:32:22;;;;;;;6.95;0.85;;;;;;;;;;5282661;28;20012;-71
2023/03/25 13:35:13;;;;;;;5.05;0.65;;;;;;;;;;5281462;28;20020;-72
2023/03/25 13:37:51;;;;;;;8.15;0.82;;;;;;;;;;5281604;28;20085;-72
2023/03/25 13:40:44;;;;;;;10.90;0.90;;;;;;;;;;5282246;28;20024;-72
2023/03/25 13:43:54;;;;;;;7.85;1.13;;;;;;;;;;5281737;28;20040;-72
2023/03/25 13:46:36;;;;;;;10.13;0.98;;;;;;;;;;5238063;28;20068;-72
2023/03/25 13:49:10;;;;;;;4.85;0.60;;;;;;;;;;5237991;28;20420;-71
2023/03/25 13:51:42;;;;;;;7.82;1.05;;;;;;;;;;5266192;28;20041;-71
2023/03/25 13:54:26;;;;;;;7.28;0.70;;;;;;;;;;5282310;28;20019;-70
2023/03/25 13:56:57;;;;;;;7.43;0.82;;;;;;;;;;5281594;28;20395;-71
2023/03/25 13:59:47;;;;;;;7.75;1.13;;;;;;;;;;5281760;28;20100;-73
2023/03/25 14:02:33;;;;;;;9.55;1.40;;;;;;;;;;5282470;28;20059;-72
2023/03/25 14:05:10;;;;;;;7.70;0.93;;;;;;;;;;5282408;28;20107;-73
2023/03/25 14:08:00;;;;;;;8.07;1.00;;;;;;;;;;5281578;28;20020;-72
2023/03/25 14:10:52;;;;;;;4.75;0.75;;;;;;;;;;5280828;28;20028;-72
2023/03/25 14:13:31;;;;;;;5.28;0.60;;;;;;;;;;5281974;28;20012;-73
2023/03/25 14:16:02;;;;;;;;;;;;;;;;;;5282630;28;20016;-72
2023/03/25 14:18:46;;;;;;;6.82;0.70;;;;;;;;;;5281055;28;19958;-72
2023/03/25 14:21:23;;;;;;;5.25;0.50;;;;;;;;;;5282137;28;20044;-72
2023/03/25 14:23:59;;;;;;;5.88;0.60;;;;;;;;;;5280847;28;20028;-73
2023/03/25 14:26:32;;;;;;;6.40;0.88;;;;;;;;;;5281626;28;20383;-73
2023/03/25 14:29:08;;;;;;;5.63;1.00;;;;;;;;;;5282188;28;20474;-71
2023/03/25 14:31:57;;;;;;;4.50;0.93;;;;;;;;;;5279887;28;20452;-73
2023/03/25 14:34:28;;;;;;;6.55;1.13;;;;;;;;;;5281519;28;20383;-72
2023/03/25 14:37:03;;;;;;;6.13;1.00;;;;;;;;;;5282035;28;20074;-74
2023/03/25 14:39:37;;;;;;;7.18;0.82;;;;;;;;;;5280764;28;20045;-73
2023/03/25 14:42:32;;;;;;;6.55;0.90;;;;;;;;;;5282055;28;20066;-72
2023/03/25 14:45:42;;;;;;;7.32;0.82;;;;;;;;;;5275328;28;20101;-72
2023/03/25 14:48:33;;;;;;;6.78;0.60;;;;;;;;;;5237770;28;20116;-72
2023/03/25 14:51:33;;;;;;;6.88;0.88;;;;;;;;;;5237682;28;20057;-72
2023/03/25 14:54:23;;;;;;;7.03;0.80;;;;;;;;;;5264620;28;20399;-72
2023/03/25 14:57:03;;;;;;;8.02;1.20;;;;;;;;;;5281580;28;20439;-73
2023/03/25 14:59:36;;;;;;;6.45;1.27;;;;;;;;;;5280470;28;20489;-73
2023/03/25 15:02:15;;;;;;;6.95;1.23;;;;;;;;;;5282061;28;20026;-73
2023/03/25 15:04:57;;;;;;;5.38;0.60;;;;;;;;;;5281029;28;20028;-72
2023/03/25 15:07:37;;;;;;;7.20;0.57;;;;;;;;;;5280361;28;20017;-68
2023/03/25 15:10:19;;;;;;;5.53;0.50;;;;;;;;;;5281381;28;20517;-67
2023/03/25 15:12:54;;;;;;;5.35;0.70;;;;;;;;;;5280599;28;20352;-68
2023/03/25 15:15:27;;;;;;;4.65;0.85;;;;;;;;;;5280913;28;20067;-68
2023/03/25 15:17:58;;;;;;;6.45;0.60;;;;;;;;;;5281410;28;20012;-67
2023/03/25 15:20:34;;;;;;;3.95;0.40;;;;;;;;;;5280117;28;20054;-68
2023/03/25 15:23:17;;;;;;;5.90;0.90;;;;;;;;;;5281212;28;20416;-69
2023/03/25 15:25:51;;;;;;;4.28;0.47;;;;;;;;;;5280776;28;20024;-69
2023/03/25 15:28:41;;;;;;;7.65;0.60;;;;;;;;;;5280473;28;20028;-71
2023/03/25 15:31:37;;;;;;;5.05;0.50;;;;;;;;;;5281098;28;20024;-70
2023/03/25 15:34:14;;;;;;;6.22;0.90;;;;;;;;;;5275050;28;20102;-72